Portada
METAR-TAF:

METAR-TAF

Aeroports :

Porto Alegre, Rio Grande do Sul, Brasil

latitud: 30-00S, longitud: 051-11W, altitud: 3 m

Observació

L'informe es va fer fa 46 minuts, a les 05:00 UTC
Vent 7 kt del Est
Temperatura 15°C
Humitat 82%
Pressió 1017 hPa
Visibilitat 10 km o més
sense núvols per sota de 1500 mi sense presència de cumulonimbus.

METAR: SBPA 200500Z 09007KT CAVOK 15/12 Q1017

Hora: 03:46 (05:46 UTC)

Pronòstic

L'informe es va fer fa 5 hores i 16 minuts, a les 00:30 UTC
Pronòstic vàlid del 20 a les 06 UTC al 21 a les 06 UTC
Vent 8 kt del Nord/Nord-Est
Visibilitat 10 km o més
sense núvols per sota de 1500 mi sense presència de cumulonimbus.
Evolucionant progressivament
l' 20 a les 14 UTC al 20 a les 16 UTC
Vent 8 kt del Est/Sud-Est

TAF: SBPA 200030Z 2006/2106 02008KT CAVOK TN12/2008Z TX28/2018Z BECMG 2014/2016 12008KT RMK PEB

Observacions i pronòstics meteorològics de més de 4000 aeroports (METAR i TAF).

Les estacions disponibles són els punts grocs i vermells al mapa.

Posi el ratolí al punt desitjat per veure el nom de l'estació.

Feu clic per veure les observacions i els pronòstics meteorològics.

Per canviar el mapa: feu clic els botons verds amb una creu de color negre per apropar; al botó verd amb un guió per allunyar la imatge; o en les fletxes verdes per a mapes adjacents.


METAR-TAF: